Corydon, Indiana
Current Conditions -  °F | °C
As of 1:56 AM on Saturday 25 Oct 2014 (Local Time) from KSDF Reporting Station
Scattered Clouds Scattered Clouds  
Wind Chill: 45°   Ceiling: Unl
Heat Index: 49°   Visibility: 9mi
Dew Point: 46°   Wind: 10mph
Humidity: 90%   Direction: 150°SSE
Pressure: 30.05"   Gusts: NA
Location:  38.21°N, 86.12°W
Report Text: KSDF 250556Z 15009KT 9SM SCT200 09/08 A3005 RMK AO2 SLP174 T00940078 10161 20094 58002
Loading
Personal Weather Stations






























Interactive Weather Map
Tropical Storm Tracking
New forecast layout! Learn more

10-Day Weather Forecast

Advertisements
Track Severe Weather on mobile